Main page
METAR-TAF:

METAR-TAF

Airports :

Caracas, Venezuela

Simón Bolívar International Airport

latitude: 10-36N, longitude: 066-59W, elevation: 43 m

Current weather observation

The report was made 1 hour and 1 minutes ago, at 10:00 UTC
Calm wind
Temperature 26°C
Humidity 74%
Pressure 1011 hPa
Visibility 10 km or more
Scattered clouds at a height of 1600 ft

METAR: SVMI 181000Z 00000KT 9999 SCT016 26/21 Q1011 NOSIG

Time: 07:01 (11:01 UTC)

Forecast

The report was made 7 hours and 1 minutes ago, at 04:00 UTC
Forecast valid from 18 at 06 UTC to 19 at 06 UTC
Wind kt from the North
Visibility 10 km or more
Few clouds at a height of 1600 ft
Becoming
from 18 at 06 UTC to 18 at 11 UTC
Wind kt from the North
Visibility 10 km or more
no clouds below 1500 m and no cumulonimbus
From 18 at 1200 UTC
Wind 3 kt from the Northeast
Visibility 10 km or more
Few clouds at a height of 1600 ft

TAF: SVMI 180400Z 1806/1906 00000KT 9999 FEW016 TX32/18Z TN24/09Z BECMG 1806/1811 00000KT CAVOK FM181200 05003KT 9999 FEW016

Weather observations and forecasts of more than 4000 airports (METAR and TAF reports).

The available stations are represented by yellow and red dots on the map.

Hover mouse over dot to see the name of the station.

Then click to see weather observations and forecasts.

To change the map : click on the green buttons with a black cross to zoom in, on the green button with a dash to zoom out, or on the green arrows for adjacent maps.


METAR-TAF: